Time;durP1;ratioP1;P1;durP2;ratioP2;P2;SDS_P1;SDS_P2;PMS_P1;PMS_P2;Temp;Humidity;BMP_temperature;BMP_pressure;BME280_temperature;BME280_humidity;BME280_pressure;Samples;Min_cycle;Max_cycle;Signal;HPM_P1;HPM_P2
2022/01/31 00:01:45;;;;;;;1.30;1.20;;;;;;;-4.07;94.11;98583.75;5036841;28;20486;-71
2022/01/31 00:04:11;;;;;;;2.85;1.60;;;;;;;-4.08;94.65;98578.63;5036017;28;20037;-70
2022/01/31 00:06:36;;;;;;;1.95;1.55;;;;;;;-4.09;94.53;98574.31;5038269;28;20064;-71
2022/01/31 00:09:02;;;;;;;2.88;1.77;;;;;;;-4.09;94.39;98574.31;5034850;28;20041;-71
2022/01/31 00:11:28;;;;;;;2.92;1.60;;;;;;;-4.08;94.23;98574.09;5044369;28;20033;-71
2022/01/31 00:13:58;;;;;;;3.47;2.28;;;;;;;-4.11;94.62;98576.44;5021401;28;20046;-72
2022/01/31 00:16:30;;;;;;;2.72;2.05;;;;;;;-4.12;94.51;98580.16;5035318;28;20037;-71
2022/01/31 00:18:56;;;;;;;2.47;1.95;;;;;;;-4.14;94.55;98574.22;5040273;28;20070;-71
2022/01/31 00:21:22;;;;;;;3.05;1.92;;;;;;;-4.15;94.25;98588.66;5038714;28;20037;-71
2022/01/31 00:23:47;;;;;;;1.85;1.65;;;;;;;-4.17;94.58;98596.91;5046465;28;20053;-71
2022/01/31 00:26:13;;;;;;;2.05;1.70;;;;;;;-4.18;94.45;98587.25;5036006;28;20061;-73
2022/01/31 00:28:38;;;;;;;2.63;1.80;;;;;;;-4.16;94.48;98603.13;5034246;28;20041;-72
2022/01/31 00:31:05;;;;;;;2.28;1.80;;;;;;;-4.14;94.77;98585.75;5040533;28;20033;-69
2022/01/31 00:33:30;;;;;;;1.52;1.42;;;;;;;-4.09;94.43;98588.53;5051209;28;20053;-71
2022/01/31 00:35:56;;;;;;;3.85;2.20;;;;;;;-4.09;94.71;98588.53;5036823;28;20080;-71
2022/01/31 00:38:21;;;;;;;1.88;1.58;;;;;;;-4.09;94.60;98593.06;5035822;28;20045;-71
2022/01/31 00:40:47;;;;;;;2.65;1.45;;;;;;;-4.10;94.13;98592.25;5039081;28;21627;-71
2022/01/31 00:43:14;;;;;;;2.17;1.63;;;;;;;-4.10;94.76;98592.25;5040946;28;20095;-71
2022/01/31 00:45:58;;;;;;;2.22;1.70;;;;;;;-4.11;93.97;98590.63;5043855;28;20099;-71
2022/01/31 00:48:26;;;;;;;2.15;1.63;;;;;;;-4.12;94.21;98593.56;5047388;28;20084;-71
2022/01/31 00:50:52;;;;;;;2.17;1.58;;;;;;;-4.12;94.23;98583.66;5048874;28;20044;-71
2022/01/31 00:53:17;;;;;;;2.90;1.58;;;;;;;-4.09;94.61;98588.53;5040811;28;20049;-71
2022/01/31 00:55:43;;;;;;;2.72;1.80;;;;;;;-4.09;94.57;98593.06;5033822;28;20039;-71
2022/01/31 00:58:10;;;;;;;1.73;1.45;;;;;;;-4.10;94.07;98592.25;5033618;28;20045;-71
2022/01/31 01:00:36;;;;;;;3.63;1.70;;;;;;;-4.08;94.20;98595.50;5033827;28;20049;-71
2022/01/31 01:03:03;;;;;;;3.22;2.08;;;;;;;-4.08;93.94;98600.88;5046344;28;20464;-71
2022/01/31 01:05:28;;;;;;;2.20;1.70;;;;;;;-4.09;94.18;98590.41;5034567;28;20048;-71
2022/01/31 01:07:55;;;;;;;2.30;2.00;;;;;;;-4.08;94.26;98592.84;5065828;28;20046;-71
2022/01/31 01:10:20;;;;;;;2.95;2.00;;;;;;;-4.10;94.38;98597.63;5042667;28;20033;-71
2022/01/31 01:12:47;;;;;;;1.92;1.60;;;;;;;-4.12;94.55;98602.41;5035725;28;20033;-71
2022/01/31 01:15:13;;;;;;;2.67;1.85;;;;;;;-4.14;94.46;98606.38;5045291;28;20045;-71
2022/01/31 01:17:39;;;;;;;2.17;1.70;;;;;;;-4.16;94.11;98617.31;5034712;28;20033;-71
2022/01/31 01:20:05;;;;;;;2.42;1.70;;;;;;;-4.17;94.14;98612.97;5028162;28;20144;-71
2022/01/31 01:22:32;;;;;;;3.13;1.60;;;;;;;-4.17;94.42;98609.50;5037706;28;20091;-71
2022/01/31 01:24:58;;;;;;;3.03;1.83;;;;;;;-4.15;94.35;98616.25;5036135;28;20045;-70
2022/01/31 01:27:24;;;;;;;1.92;1.70;;;;;;;-4.15;94.07;98626.16;5049323;28;20233;-71
2022/01/31 01:29:51;;;;;;;1.90;1.70;;;;;;;-4.17;94.07;98618.34;5020049;28;20464;-71
2022/01/31 01:32:19;;;;;;;3.13;2.00;;;;;;;-4.15;94.20;98613.59;5031283;28;20072;-70
2022/01/31 01:34:45;;;;;;;2.78;2.05;;;;;;;-4.15;94.28;98624.28;5036458;28;20071;-70
2022/01/31 01:37:11;;;;;;;1.70;1.58;;;;;;;-4.13;94.27;98624.06;5035922;28;20030;-71
2022/01/31 01:39:36;;;;;;;2.47;1.60;;;;;;;-4.14;94.47;98625.94;5031731;28;20037;-71
2022/01/31 01:42:02;;;;;;;2.42;1.58;;;;;;;-4.12;93.91;98625.69;5032114;28;20037;-71
2022/01/31 01:44:45;;;;;;;3.60;1.92;;;;;;;-4.12;94.45;98615.78;5044306;28;20087;-72
2022/01/31 01:47:16;;;;;;;1.67;1.58;;;;;;;-4.11;94.34;98627.31;5039907;28;20486;-71
2022/01/31 01:49:42;;;;;;;2.67;1.90;;;;;;;-4.12;94.40;98621.16;5021950;28;20041;-70
2022/01/31 01:52:08;;;;;;;3.13;1.90;;;;;;;-4.12;94.23;98633.72;5012332;28;20090;-70
2022/01/31 01:54:34;;;;;;;3.03;2.10;;;;;;;-4.17;94.27;98629.03;5037740;28;20049;-70
2022/01/31 01:57:02;;;;;;;2.90;2.05;;;;;;;-4.16;94.06;98621.84;5043908;28;20511;-70
2022/01/31 01:59:28;;;;;;;3.42;2.10;;;;;;;-4.16;94.52;98630.72;5024916;28;20075;-71
2022/01/31 02:02:17;;;;;;;3.85;2.60;;;;;;;-4.14;94.51;98628.59;5035481;28;20037;-70
2022/01/31 02:04:43;;;;;;;3.15;2.10;;;;;;;-4.15;95.12;98629.66;5036239;28;20400;-70
2022/01/31 02:07:20;;;;;;;3.08;2.05;;;;;;;-4.19;94.67;98624.97;5041322;28;20045;-70
2022/01/31 02:09:53;;;;;;;5.13;2.28;;;;;;;-4.21;94.54;98622.53;5015766;28;20052;-70
2022/01/31 02:12:19;;;;;;;3.50;1.85;;;;;;;-4.19;94.69;98628.47;5015665;28;20060;-70
2022/01/31 02:14:45;;;;;;;3.22;2.35;;;;;;;-4.16;94.80;98627.22;5047574;28;20499;-70
2022/01/31 02:17:29;;;;;;;4.20;3.13;;;;;;;-4.21;94.86;98635.94;5040635;28;20042;-70
2022/01/31 02:20:07;;;;;;;3.95;3.15;;;;;;;-4.23;94.94;98623.81;5028474;28;20051;-70
2022/01/31 02:22:33;;;;;;;3.83;1.98;;;;;;;-4.25;94.88;98618.72;5032803;28;20075;-70
2022/01/31 02:24:59;;;;;;;3.03;2.17;;;;;;;-4.25;95.30;98624.06;5030788;28;20033;-70
2022/01/31 02:27:51;;;;;;;3.55;2.55;;;;;;;-4.28;94.83;98622.69;5031851;28;20523;-71
2022/01/31 02:30:17;;;;;;;2.88;2.00;;;;;;;-4.31;95.24;98615.13;5033272;28;20065;-71
2022/01/31 02:32:46;;;;;;;3.53;2.50;;;;;;;-4.32;95.43;98629.56;5030756;28;20043;-71
2022/01/31 02:35:12;;;;;;;4.35;3.08;;;;;;;-4.33;95.15;98627.94;5028729;28;20038;-70
2022/01/31 02:37:38;;;;;;;3.97;2.35;;;;;;;-4.31;95.52;98622.34;5040719;28;20049;-70
2022/01/31 02:40:33;;;;;;;2.63;2.00;;;;;;;-4.32;95.21;98621.53;5033484;28;20115;-70
2022/01/31 02:43:02;;;;;;;3.53;2.40;;;;;;;-4.32;95.37;98620.72;5020400;28;20041;-70
2022/01/31 02:45:30;;;;;;;4.15;2.40;;;;;;;-4.31;95.05;98625.81;5032339;28;20087;-70
2022/01/31 02:47:59;;;;;;;4.68;2.78;;;;;;;-4.31;95.29;98616.97;5029747;28;20828;-70
2022/01/31 02:50:30;;;;;;;3.75;2.80;;;;;;;-4.26;95.36;98617.09;5034464;28;20551;-70
2022/01/31 02:53:12;;;;;;;3.10;2.33;;;;;;;-4.28;95.22;98622.69;5043107;28;20124;-71
2022/01/31 02:55:41;;;;;;;3.03;2.38;;;;;;;-4.25;95.33;98616.03;5029521;28;20053;-70
2022/01/31 02:58:07;;;;;;;4.15;2.50;;;;;;;-4.27;95.40;98618.94;5036145;28;20128;-70
2022/01/31 03:00:34;;;;;;;4.50;2.47;;;;;;;-4.29;95.61;98633.63;5032255;28;20064;-71
2022/01/31 03:03:31;;;;;;;3.45;2.78;;;;;;;-4.32;95.08;98631.41;5033565;28;20059;-70
2022/01/31 03:05:57;;;;;;;3.83;3.08;;;;;;;-4.35;95.37;98621.97;5006927;28;20480;-70
2022/01/31 03:08:24;;;;;;;4.70;2.88;;;;;;;-4.34;95.43;98628.13;5044851;28;20045;-71
2022/01/31 03:10:51;;;;;;;4.00;2.97;;;;;;;-4.33;95.47;98624.44;5043118;28;20044;-70
2022/01/31 03:13:28;;;;;;;4.30;3.15;;;;;;;-4.34;95.32;98633.50;5023879;28;20050;-71
2022/01/31 03:15:53;;;;;;;4.60;2.90;;;;;;;-4.35;95.25;98634.53;5050232;28;20039;-71
2022/01/31 03:18:33;;;;;;;3.05;2.50;;;;;;;-4.36;95.55;98630.22;5033000;28;20052;-71
2022/01/31 03:20:59;;;;;;;2.95;2.33;;;;;;;-4.37;94.85;98633.97;5035395;28;20053;-70
2022/01/31 03:23:25;;;;;;;4.60;2.95;;;;;;;-4.39;95.18;98649.44;5038784;28;20048;-70
2022/01/31 03:25:50;;;;;;;3.58;2.17;;;;;;;-4.42;94.83;98636.53;5038318;28;20120;-70
2022/01/31 03:28:17;;;;;;;3.65;2.95;;;;;;;-4.39;95.04;98625.34;5047688;28;20087;-70
2022/01/31 03:30:42;;;;;;;4.13;2.88;;;;;;;-4.39;95.03;98638.75;5048892;28;20033;-70
2022/01/31 03:33:08;;;;;;;4.38;2.28;;;;;;;-4.39;95.16;98638.75;5032969;28;20048;-70
2022/01/31 03:35:34;;;;;;;4.15;2.90;;;;;;;-4.37;94.84;98642.00;5034364;28;20072;-70
2022/01/31 03:38:00;;;;;;;4.63;2.67;;;;;;;-4.39;95.01;98633.38;5065805;28;20087;-71
2022/01/31 03:40:28;;;;;;;4.18;3.22;;;;;;;-4.40;95.07;98629.09;5048085;28;20068;-71
2022/01/31 03:42:53;;;;;;;3.13;2.47;;;;;;;-4.44;94.80;98641.31;5041078;28;20063;-70
2022/01/31 03:45:19;;;;;;;4.28;2.72;;;;;;;-4.45;94.80;98647.72;5038083;28;20041;-71
2022/01/31 03:47:47;;;;;;;4.15;2.88;;;;;;;-4.49;94.85;98642.00;5036926;28;20064;-71
2022/01/31 03:50:17;;;;;;;4.22;3.83;;;;;;;-4.51;94.74;98646.78;5017475;28;20065;-71
2022/01/31 03:52:45;;;;;;;4.82;3.00;;;;;;;-4.52;94.83;98636.28;5014645;28;20080;-71
2022/01/31 03:55:13;;;;;;;3.60;2.65;;;;;;;-4.54;94.56;98633.84;5039921;28;20037;-71
2022/01/31 03:57:39;;;;;;;5.50;2.85;;;;;;;-4.49;94.81;98635.84;5043873;28;20045;-71
2022/01/31 04:00:24;;;;;;;4.72;2.92;;;;;;;-4.47;95.04;98641.78;5043925;28;20045;-71
2022/01/31 04:02:50;;;;;;;4.78;3.10;;;;;;;-4.46;94.68;98640.72;5048357;28;20094;-71
2022/01/31 04:05:16;;;;;;;3.47;2.53;;;;;;;-4.44;94.90;98639.44;5037741;28;20069;-71
2022/01/31 04:07:43;;;;;;;5.78;3.20;;;;;;;-4.43;94.56;98635.72;5039615;28;20064;-71
2022/01/31 04:10:09;;;;;;;5.57;3.22;;;;;;;-4.40;95.17;98647.81;5040714;28;20040;-71
2022/01/31 04:12:35;;;;;;;3.63;2.85;;;;;;;-4.38;94.66;98646.53;5035919;28;20040;-71
2022/01/31 04:15:00;;;;;;;3.92;2.70;;;;;;;-4.37;94.81;98642.81;5035899;28;20033;-71
2022/01/31 04:17:26;;;;;;;4.93;3.33;;;;;;;-4.37;94.82;98655.38;5036251;28;20033;-70
2022/01/31 04:19:52;;;;;;;4.43;3.22;;;;;;;-4.35;94.33;98640.72;5038377;28;20041;-71
2022/01/31 04:22:19;;;;;;;7.72;3.40;;;;;;;-4.35;94.66;98654.09;5043550;28;20052;-71
2022/01/31 04:24:48;;;;;;;4.65;3.40;;;;;;;-4.34;94.40;98638.84;5047591;28;20576;-71
2022/01/31 04:27:18;;;;;;;3.45;2.58;;;;;;;-4.34;94.56;98641.53;5041687;28;20045;-70
2022/01/31 04:29:45;;;;;;;4.82;3.05;;;;;;;-4.35;94.55;98654.09;5035569;28;20124;-70
2022/01/31 04:32:11;;;;;;;5.18;3.20;;;;;;;-4.32;94.70;98650.97;5047944;28;20037;-70
2022/01/31 04:34:37;;;;;;;4.20;3.28;;;;;;;-4.33;94.66;98651.22;5034323;28;20084;-71
2022/01/31 04:37:02;;;;;;;4.25;3.13;;;;;;;-4.33;94.72;98656.56;5037859;28;20037;-71
2022/01/31 04:39:29;;;;;;;5.72;3.22;;;;;;;-4.34;95.00;98654.91;5040937;28;20136;-71
2022/01/31 04:41:56;;;;;;;4.15;3.22;;;;;;;-4.36;94.33;98659.69;5031363;28;20530;-70
2022/01/31 04:44:22;;;;;;;4.18;3.20;;;;;;;-4.37;94.55;98660.72;5029666;28;22003;-71
2022/01/31 04:46:51;;;;;;;5.00;3.17;;;;;;;-4.39;94.32;98657.47;5030817;28;20037;-71
2022/01/31 04:49:18;;;;;;;4.18;2.90;;;;;;;-4.41;94.13;98659.56;5030781;28;20072;-71
2022/01/31 04:51:44;;;;;;;5.13;3.38;;;;;;;-4.42;94.56;98657.94;5030049;28;20462;-71
2022/01/31 04:54:09;;;;;;;4.80;3.38;;;;;;;-4.40;94.38;98666.56;5032976;28;20033;-71
2022/01/31 04:56:36;;;;;;;5.18;3.10;;;;;;;-4.40;94.12;98669.25;5034546;28;20045;-71
2022/01/31 04:59:03;;;;;;;5.55;3.67;;;;;;;-4.42;94.14;98679.38;5031359;28;20034;-70
2022/01/31 05:01:34;;;;;;;4.22;3.22;;;;;;;-4.40;93.96;98674.59;5030969;28;20049;-71
2022/01/31 05:04:00;;;;;;;4.32;3.10;;;;;;;-4.40;93.91;98677.25;5032779;28;20034;-71
2022/01/31 05:06:31;;;;;;;4.40;2.92;;;;;;;-4.39;93.89;98676.22;5039268;28;20041;-70
2022/01/31 05:08:57;;;;;;;4.15;3.20;;;;;;;-4.38;94.42;98688.56;5032531;28;20041;-70
2022/01/31 05:11:23;;;;;;;6.13;3.50;;;;;;;-4.39;94.17;98690.41;5031145;28;20144;-70
2022/01/31 05:13:48;;;;;;;6.03;3.58;;;;;;;-4.39;93.74;98686.94;5030728;28;20093;-70
2022/01/31 05:16:14;;;;;;;4.97;3.33;;;;;;;-4.42;94.06;98690.88;5034511;28;20033;-70
2022/01/31 05:18:40;;;;;;;10.68;4.20;;;;;;;-4.42;93.97;98690.06;5034394;28;20039;-71
2022/01/31 05:21:07;;;;;;;8.30;3.88;;;;;;;-4.43;94.00;98709.84;4993407;28;1115728;-71
2022/01/31 05:23:34;;;;;;;5.30;3.53;;;;;;;-4.45;93.95;98695.91;5033277;28;20034;-70
2022/01/31 05:26:00;;;;;;;5.53;3.63;;;;;;;-4.45;93.91;98702.06;5033445;28;20484;-70
2022/01/31 05:28:26;;;;;;;4.43;3.05;;;;;;;-4.46;94.18;98688.91;5012589;28;20132;-70
2022/01/31 05:30:51;;;;;;;6.00;4.22;;;;;;;-4.43;93.67;98704.50;5031261;28;20045;-70
2022/01/31 05:33:17;;;;;;;5.18;3.50;;;;;;;-4.46;94.07;98697.75;5031188;28;20091;-70
2022/01/31 05:35:44;;;;;;;3.88;3.45;;;;;;;-4.48;94.18;98701.72;5031306;28;20060;-70
2022/01/31 05:38:15;;;;;;;5.15;3.58;;;;;;;-4.46;93.81;98694.25;5033605;28;20038;-70
2022/01/31 05:40:41;;;;;;;5.13;3.80;;;;;;;-4.50;93.85;98701.94;5030746;28;20043;-70
2022/01/31 05:43:06;;;;;;;5.97;3.50;;;;;;;-4.52;93.95;98692.50;5033996;28;20042;-70
2022/01/31 05:45:32;;;;;;;4.70;3.85;;;;;;;-4.52;94.39;98695.16;5034282;28;20087;-70
2022/01/31 05:47:58;;;;;;;4.65;3.33;;;;;;;-4.51;93.80;98692.28;5032346;28;20049;-70
2022/01/31 05:50:24;;;;;;;4.15;3.70;;;;;;;-4.46;93.54;98694.25;5032060;28;20098;-70
2022/01/31 05:52:51;;;;;;;5.88;3.92;;;;;;;-4.49;94.07;98697.41;5042567;28;20590;-70
2022/01/31 05:55:17;;;;;;;5.85;3.78;;;;;;;-4.49;93.75;98708.94;5034104;28;20033;-70
2022/01/31 05:57:47;;;;;;;5.18;4.00;;;;;;;-4.49;93.79;98714.28;5027224;28;20060;-70
2022/01/31 06:00:14;;;;;;;5.47;4.38;;;;;;;-4.52;93.89;98706.69;5031059;28;20091;-70
2022/01/31 06:02:39;;;;;;;5.70;4.20;;;;;;;-4.51;93.93;98710.19;5037453;28;20119;-71
2022/01/31 06:05:08;;;;;;;4.90;3.42;;;;;;;-4.55;94.14;98707.97;5037111;28;20460;-71
2022/01/31 06:07:33;;;;;;;5.68;3.47;;;;;;;-4.52;94.11;98708.56;5033765;28;20068;-70
2022/01/31 06:10:00;;;;;;;6.13;3.55;;;;;;;-4.50;93.93;98707.31;5027399;28;20512;-70
2022/01/31 06:12:26;;;;;;;5.60;3.90;;;;;;;-4.51;93.82;98712.84;5066260;28;20420;-70
2022/01/31 06:14:51;;;;;;;4.93;3.80;;;;;;;-4.52;93.79;98705.88;5045980;28;20499;-70
2022/01/31 06:17:17;;;;;;;6.53;3.92;;;;;;;-4.53;93.99;98709.59;5036008;28;20038;-70
2022/01/31 06:19:43;;;;;;;5.05;3.30;;;;;;;-4.53;94.04;98713.09;5040039;28;20504;-70
2022/01/31 06:22:13;;;;;;;7.20;4.40;;;;;;;-4.56;94.10;98703.66;5032457;28;20084;-70
2022/01/31 06:24:40;;;;;;;5.57;3.58;;;;;;;-4.55;93.87;98704.47;5033489;28;20110;-72
2022/01/31 06:27:13;;;;;;;7.00;3.85;;;;;;;-4.55;93.91;98707.16;5016861;28;20139;-70
2022/01/31 06:29:39;;;;;;;4.93;3.58;;;;;;;-4.55;93.91;98715.19;5031627;28;20499;-70
2022/01/31 06:32:13;;;;;;;6.43;3.55;;;;;;;-4.53;94.10;98712.28;5032588;28;20041;-69
2022/01/31 06:34:38;;;;;;;5.32;3.72;;;;;;;-4.52;94.08;98721.94;5037278;28;20052;-70
2022/01/31 06:37:04;;;;;;;5.97;3.42;;;;;;;-4.49;93.94;98710.78;5041569;28;20499;-70
2022/01/31 06:39:30;;;;;;;7.07;5.32;;;;;;;-4.51;93.69;98713.72;5038470;28;20396;-69
2022/01/31 06:41:56;;;;;;;6.63;4.50;;;;;;;-4.52;93.62;98719.25;5037007;28;20131;-69
2022/01/31 06:44:22;;;;;;;5.43;3.92;;;;;;;-4.53;94.13;98720.31;5045525;28;20547;-70
2022/01/31 06:46:48;;;;;;;6.05;4.20;;;;;;;-4.53;93.74;98713.09;5045141;28;20551;-70
2022/01/31 06:49:14;;;;;;;5.60;3.75;;;;;;;-4.50;93.57;98711.84;5027736;28;20049;-70
2022/01/31 06:51:39;;;;;;;6.53;4.28;;;;;;;-4.49;93.51;98726.84;5028818;28;20052;-70
2022/01/31 06:54:06;;;;;;;8.20;4.38;;;;;;;-4.48;93.90;98731.16;5026173;28;20608;-70
2022/01/31 06:56:35;;;;;;;6.25;4.28;;;;;;;-4.48;94.13;98721.25;5025329;28;20041;-70
2022/01/31 06:59:02;;;;;;;6.20;4.03;;;;;;;-4.49;93.73;98722.31;5035034;28;20040;-70
2022/01/31 07:01:28;;;;;;;6.25;4.22;;;;;;;-4.45;93.85;98728.00;5038497;28;20029;-70
2022/01/31 07:03:54;;;;;;;6.28;4.30;;;;;;;-4.50;94.00;98709.97;5070006;28;20136;-70
2022/01/31 07:06:21;;;;;;;6.20;4.03;;;;;;;-4.50;93.81;98715.34;5034664;28;20144;-71
2022/01/31 07:08:47;;;;;;;6.38;4.53;;;;;;;-4.47;93.92;98732.78;5030751;28;20507;-70
2022/01/31 07:11:19;;;;;;;6.63;4.43;;;;;;;-4.51;93.91;98732.44;5031622;28;20041;-71
2022/01/31 07:13:48;;;;;;;6.15;4.05;;;;;;;-4.49;94.28;98727.66;5042475;28;20041;-71
2022/01/31 07:16:13;;;;;;;4.88;3.45;;;;;;;-4.46;93.56;98734.41;5030852;28;20052;-70
2022/01/31 07:18:40;;;;;;;9.80;4.10;;;;;;;-4.45;93.88;98728.00;5034195;28;20033;-70
2022/01/31 07:21:05;;;;;;;6.22;4.60;;;;;;;-4.47;93.61;98730.09;5042786;28;20057;-71
2022/01/31 07:24:18;;;;;;;7.40;4.10;;;;;;;-4.43;93.83;98725.91;5040721;28;20411;-70
2022/01/31 07:26:23;;;;;;;7.45;4.60;;;;;;;-4.41;93.86;98732.66;5028488;28;20056;-71
2022/01/31 07:28:48;;;;;;;4.40;3.10;;;;;;;-4.41;93.63;98723.81;5032651;28;20037;-71
2022/01/31 07:31:16;;;;;;;6.30;3.88;;;;;;;-4.41;92.93;98746.06;5032506;28;20046;-70
2022/01/31 07:33:42;;;;;;;6.20;4.10;;;;;;;-4.42;93.61;98735.59;5036136;28;20390;-71
2022/01/31 07:36:08;;;;;;;5.63;3.47;;;;;;;-4.44;93.03;98732.31;5034842;28;20140;-70
2022/01/31 07:38:34;;;;;;;8.30;4.68;;;;;;;-4.40;92.92;98736.16;5031155;28;20664;-70
2022/01/31 07:41:00;;;;;;;6.10;4.15;;;;;;;-4.39;93.17;98727.09;5031993;28;20492;-70
2022/01/31 07:43:25;;;;;;;6.40;4.30;;;;;;;-4.43;93.14;98742.78;5023507;28;20048;-71
2022/01/31 07:45:51;;;;;;;6.40;4.32;;;;;;;-4.43;92.90;98744.66;5030037;28;20467;-71
2022/01/31 07:48:16;;;;;;;9.07;4.07;;;;;;;-4.42;92.76;98741.75;5026388;28;20091;-70
2022/01/31 07:50:42;;;;;;;11.75;4.38;;;;;;;-4.39;92.88;98743.16;5029169;28;20140;-71
2022/01/31 07:53:09;;;;;;;6.13;4.32;;;;;;;-4.37;92.59;98751.75;5035658;28;20676;-71
2022/01/31 07:55:35;;;;;;;5.50;4.82;;;;;;;-4.38;92.66;98742.91;5038976;28;20535;-70
2022/01/31 07:58:01;;;;;;;5.55;3.58;;;;;;;-4.40;92.87;98741.50;5031006;28;20045;-70
2022/01/31 08:00:27;;;;;;;7.25;3.97;;;;;;;-4.40;92.73;98738.84;5030094;28;20049;-70
2022/01/31 08:02:53;;;;;;;7.70;4.20;;;;;;;-4.36;92.78;98734.66;5035084;28;20037;-70
2022/01/31 08:05:21;;;;;;;5.95;3.92;;;;;;;-4.33;92.92;98742.25;5034508;28;20120;-71
2022/01/31 08:07:47;;;;;;;6.80;3.60;;;;;;;-4.34;92.05;98727.19;5024384;28;20048;-70
2022/01/31 08:10:13;;;;;;;7.93;4.07;;;;;;;-4.33;92.46;98723.50;5022292;28;20048;-71
2022/01/31 08:12:41;;;;;;;8.88;4.07;;;;;;;-4.34;92.23;98735.22;5025385;28;20033;-70
2022/01/31 08:15:09;;;;;;;5.75;4.20;;;;;;;-4.33;92.08;98734.22;5035902;28;20035;-69
2022/01/31 08:17:34;;;;;;;7.82;4.40;;;;;;;-4.33;92.17;98736.88;5034870;28;20033;-71
2022/01/31 08:20:00;;;;;;;7.68;3.97;;;;;;;-4.33;92.02;98742.25;5032085;28;20087;-71
2022/01/31 08:22:26;;;;;;;7.28;4.13;;;;;;;-4.33;92.03;98737.69;5026104;28;20050;-72
2022/01/31 08:24:51;;;;;;;7.60;4.20;;;;;;;-4.29;92.13;98730.81;5030359;28;20042;-70
2022/01/31 08:27:17;;;;;;;7.55;4.43;;;;;;;-4.26;91.97;98742.94;5034865;28;20040;-71
2022/01/31 08:29:43;;;;;;;7.80;4.72;;;;;;;-4.27;92.35;98743.97;5045642;28;20453;-71
2022/01/31 08:32:17;;;;;;;5.55;3.83;;;;;;;-4.27;91.91;98734.09;5047331;28;20041;-71
2022/01/31 08:37:27;;;;;;;5.95;3.88;;;;;;;-4.28;91.72;98742.34;5032876;28;20047;-71
2022/01/31 08:39:53;;;;;;;7.15;4.70;;;;;;;-4.26;91.53;98745.59;5034156;28;20041;-71
2022/01/31 08:42:19;;;;;;;7.93;4.28;;;;;;;-4.22;91.88;98748.63;5031070;28;20450;-71
2022/01/31 08:44:46;;;;;;;5.68;4.47;;;;;;;-4.17;91.64;98760.28;5048443;28;20034;-71
2022/01/31 08:47:12;;;;;;;5.38;3.58;;;;;;;-4.22;91.51;98746.78;5041211;28;20499;-71
2022/01/31 08:49:37;;;;;;;4.82;3.47;;;;;;;-4.23;91.51;98745.13;5035552;28;20132;-70
2022/01/31 08:52:04;;;;;;;6.03;3.50;;;;;;;-4.23;91.53;98742.47;5037697;28;20063;-70
2022/01/31 08:54:30;;;;;;;5.20;3.38;;;;;;;-4.20;91.47;98738.50;5048375;28;20463;-71
2022/01/31 08:56:55;;;;;;;5.45;2.88;;;;;;;-4.18;91.67;98742.56;5046755;28;20516;-70
2022/01/31 08:59:24;;;;;;;7.03;3.85;;;;;;;-4.18;91.59;98736.41;5031378;28;20123;-71
2022/01/31 09:02:03;;;;;;;6.80;3.72;;;;;;;-4.19;92.06;98740.13;5044719;28;20037;-70
2022/01/31 09:04:47;;;;;;;8.90;4.18;;;;;;;-4.19;91.40;98742.81;5035006;28;20049;-70
2022/01/31 09:07:20;;;;;;;7.18;4.20;;;;;;;-4.20;91.64;98739.31;5044219;28;20029;-69
2022/01/31 09:09:52;;;;;;;5.80;3.75;;;;;;;-4.20;91.89;98746.53;5044828;28;20132;-69
2022/01/31 09:12:19;;;;;;;5.10;4.10;;;;;;;-4.25;91.79;98756.09;5036976;28;20136;-69
2022/01/31 09:14:45;;;;;;;6.43;3.75;;;;;;;-4.23;91.57;98747.81;5039996;28;20025;-70
2022/01/31 09:17:11;;;;;;;5.90;4.00;;;;;;;-4.23;91.65;98739.78;5036071;28;20048;-70
2022/01/31 09:19:37;;;;;;;6.18;3.90;;;;;;;-4.19;91.77;98743.63;5033177;28;20037;-72
2022/01/31 09:22:03;;;;;;;2.90;2.15;;;;;;;-4.17;91.94;98749.56;5032244;28;20401;-76
2022/01/31 09:24:29;;;;;;;5.93;2.85;;;;;;;-4.14;91.43;98749.13;5032849;28;20041;-76
2022/01/31 09:26:55;;;;;;;7.03;4.00;;;;;;;-4.11;91.70;98745.97;5036108;28;20036;-76
2022/01/31 09:29:21;;;;;;;3.53;2.45;;;;;;;-4.06;91.73;98750.63;5037782;28;20077;-76
2022/01/31 09:31:46;;;;;;;5.95;4.00;;;;;;;-4.04;91.33;98752.00;5045187;28;20047;-76
2022/01/31 09:34:12;;;;;;;5.85;3.90;;;;;;;-4.03;91.76;98750.97;5036502;28;20030;-76
2022/01/31 09:36:39;;;;;;;6.38;4.15;;;;;;;-3.99;91.38;98752.16;5034411;28;20545;-76
2022/01/31 09:39:05;;;;;;;5.53;3.65;;;;;;;-3.97;91.39;98760.78;5038522;28;20029;-75
2022/01/31 09:41:33;;;;;;;5.50;4.38;;;;;;;-3.93;91.28;98765.66;5040579;28;20048;-75
2022/01/31 09:44:22;;;;;;;7.15;4.82;;;;;;;-3.89;91.59;98758.78;5035726;28;20079;-80
2022/01/31 09:49:18;;;;;;;7.15;4.40;;;;;;;-3.91;90.75;98758.19;5033638;28;20048;-80
2022/01/31 09:51:43;;;;;;;3.85;3.30;;;;;;;-3.95;90.65;98749.81;5060811;28;20152;-82
2022/01/31 09:54:09;;;;;;;8.85;4.97;;;;;;;-3.89;90.23;98761.47;5033397;28;20123;-79
2022/01/31 09:56:37;;;;;;;7.78;4.85;;;;;;;-3.90;90.32;98765.19;5038376;28;20460;-79
2022/01/31 09:59:05;;;;;;;3.10;1.77;;;;;;;-3.89;90.21;98758.78;5036369;28;20041;-77
2022/01/31 10:01:40;;;;;;;4.55;3.40;;;;;;;-3.86;89.84;98758.31;5034587;28;20063;-78
2022/01/31 10:04:14;;;;;;;6.65;4.40;;;;;;;-3.86;90.06;98755.63;5060468;28;20296;-81
2022/01/31 10:06:43;;;;;;;6.63;4.85;;;;;;;-3.89;89.78;98758.78;5030326;28;20069;-79
2022/01/31 10:09:15;;;;;;;6.93;4.57;;;;;;;-3.88;89.72;98757.72;5034243;28;20057;-82
2022/01/31 10:11:56;;;;;;;8.05;4.75;;;;;;;-3.84;89.96;98756.19;5027206;28;20131;-79
2022/01/31 10:17:40;;;;;;;5.60;3.78;;;;;;;-3.77;89.27;98748.88;5036423;28;20515;-84
2022/01/31 10:20:18;;;;;;;7.38;3.00;;;;;;;-3.77;89.63;98751.56;5033406;28;20064;-84
2022/01/31 10:22:44;;;;;;;7.65;5.30;;;;;;;-3.76;89.99;98750.50;5059535;28;20041;-77
2022/01/31 10:25:19;;;;;;;5.60;3.05;;;;;;;-3.75;89.70;98755.63;5031321;28;20128;-81
2022/01/31 10:27:47;;;;;;;8.90;4.80;;;;;;;-3.73;89.13;98771.47;5034491;28;20072;-79
2022/01/31 10:30:22;;;;;;;7.15;3.85;;;;;;;-3.68;89.37;98771.56;5030496;28;20113;-81
2022/01/31 10:32:48;;;;;;;7.15;4.55;;;;;;;-3.70;89.24;98765.63;5026713;28;20649;-81
2022/01/31 10:35:20;;;;;;;7.05;4.57;;;;;;;-3.66;89.24;98774.81;5038136;28;20041;-85
2022/01/31 10:37:48;;;;;;;6.95;4.32;;;;;;;-3.69;88.99;98762.72;5031418;28;20041;-82
2022/01/31 10:43:42;;;;;;;2.70;1.85;;;;;;;-3.67;89.18;98763.28;5030308;28;20033;-87
2022/01/31 10:46:22;;;;;;;9.00;4.70;;;;;;;-3.64;88.82;98780.78;5023113;28;20124;-83
2022/01/31 10:56:44;;;;;;;1.35;1.25;;;;;;;-3.69;89.32;98775.31;5021435;28;20522;-89
2022/01/31 10:59:14;;;;;;;6.63;3.73;;;;;;;-3.69;88.72;98778.78;5026804;28;20120;-83
2022/01/31 11:01:42;;;;;;;8.68;4.82;;;;;;;-3.72;89.12;98776.59;5023241;28;20296;-87
2022/01/31 11:04:12;;;;;;;9.80;4.78;;;;;;;-3.74;88.75;98773.34;5038760;28;20574;-82
2022/01/31 11:06:40;;;;;;;12.85;6.05;;;;;;;-3.70;88.93;98773.66;5052502;28;20120;-88
2022/01/31 11:09:09;;;;;;;8.85;4.85;;;;;;;-3.78;88.97;98785.56;5035746;28;20041;-86
2022/01/31 11:11:36;;;;;;;;;;;;;;;-3.86;88.86;98774.38;5030337;28;20152;-85
2022/01/31 11:14:03;;;;;;;13.88;6.00;;;;;;;-3.89;89.14;98775.66;5033288;28;19921;-83
2022/01/31 11:16:35;;;;;;;9.73;4.82;;;;;;;-3.89;89.13;98780.22;5038984;28;20140;-83
2022/01/31 11:19:06;;;;;;;10.55;6.72;;;;;;;-3.90;89.47;98770.53;5042184;28;20036;-84
2022/01/31 11:21:34;;;;;;;11.63;5.82;;;;;;;-3.90;89.09;98775.91;5036157;28;20089;-84
2022/01/31 11:24:02;;;;;;;11.73;6.07;;;;;;;-3.92;89.60;98770.78;5028885;28;20484;-85
2022/01/31 11:26:36;;;;;;;11.15;5.65;;;;;;;-3.90;89.81;98775.91;5029740;28;20407;-88
2022/01/31 11:29:04;;;;;;;10.23;5.28;;;;;;;-3.89;89.55;98769.50;5019591;28;20480;-89
2022/01/31 11:31:30;;;;;;;4.35;2.05;;;;;;;-3.85;89.54;98776.00;5030774;28;20045;-86
2022/01/31 11:33:58;;;;;;;8.95;4.18;;;;;;;-3.84;89.63;98780.31;5028484;28;20415;-85
2022/01/31 11:36:24;;;;;;;14.20;6.07;;;;;;;-3.83;89.69;98774.72;5036133;28;20038;-86
2022/01/31 11:38:51;;;;;;;10.50;5.85;;;;;;;-3.85;89.32;98768.78;5033829;28;20167;-88
2022/01/31 11:41:17;;;;;;;13.20;7.47;;;;;;;-3.90;89.92;98778.59;5035186;28;20069;-87
2022/01/31 11:43:46;;;;;;;6.30;3.67;;;;;;;-3.93;89.42;98771.81;5031362;28;20711;-87
2022/01/31 11:46:12;;;;;;;11.43;5.10;;;;;;;-3.90;89.98;98774.03;5037847;28;20098;-85
2022/01/31 11:48:38;;;;;;;12.57;6.43;;;;;;;-3.86;89.44;98785.09;5047519;28;20061;-85
2022/01/31 11:51:05;;;;;;;11.88;6.70;;;;;;;-3.84;89.81;98766.91;5045484;28;20033;-89
2022/01/31 11:53:35;;;;;;;11.73;6.93;;;;;;;-3.81;89.92;98769.16;5041740;28;20515;-88
2022/01/31 11:56:17;;;;;;;10.85;7.03;;;;;;;-3.77;89.61;98770.31;5044709;28;20038;-89
2022/01/31 11:58:45;;;;;;;15.88;7.93;;;;;;;-3.75;89.97;98765.53;5039266;28;20033;-89